createdAt,value
2017-11-21T00:00:06.007Z,11
2017-11-21T00:10:05.990Z,11
2017-11-21T00:20:06.028Z,15
2017-11-21T00:30:06.201Z,16
2017-11-21T00:40:05.970Z,17
2017-11-21T00:50:06.047Z,22
2017-11-21T01:00:05.989Z,24
2017-11-21T01:10:06.097Z,21
2017-11-21T01:20:06.082Z,24
2017-11-21T01:30:06.077Z,22
2017-11-21T01:40:06.088Z,18
2017-11-21T01:50:06.088Z,18
2017-11-21T02:00:07.191Z,18
2017-11-21T02:10:06.187Z,16
2017-11-21T02:20:06.257Z,20
2017-11-21T02:30:06.054Z,20
2017-11-21T02:40:06.365Z,22
2017-11-21T02:50:06.285Z,26
2017-11-21T03:00:06.368Z,27
2017-11-21T03:10:06.140Z,23
2017-11-21T03:20:06.125Z,23
2017-11-21T03:30:06.151Z,24
2017-11-21T03:40:06.194Z,23
2017-11-21T03:50:06.159Z,17
2017-11-21T04:00:06.212Z,18
2017-11-21T04:10:06.155Z,21
2017-11-21T04:20:06.238Z,25
2017-11-21T04:30:06.222Z,22
2017-11-21T04:40:06.171Z,25
2017-11-21T04:50:06.174Z,25
2017-11-21T05:00:06.159Z,28
2017-11-21T05:10:06.227Z,27
2017-11-21T05:20:06.160Z,31
2017-11-21T05:30:06.256Z,28
2017-11-21T05:40:06.218Z,30
2017-11-21T05:50:06.329Z,32
2017-11-21T06:00:06.223Z,31
2017-11-21T06:10:06.282Z,31
2017-11-21T06:20:06.246Z,30
2017-11-21T06:30:06.337Z,35
2017-11-21T06:40:06.297Z,37
2017-11-21T06:50:06.368Z,34
2017-11-21T07:00:06.353Z,36
2017-11-21T07:10:06.406Z,37
2017-11-21T07:20:06.353Z,42
2017-11-21T07:30:06.410Z,37
2017-11-21T07:40:06.344Z,36
2017-11-21T07:50:06.321Z,32
2017-11-21T08:00:06.383Z,27
2017-11-21T08:10:06.346Z,24
2017-11-21T08:20:06.417Z,24
2017-11-21T08:30:06.387Z,23
2017-11-21T08:40:06.470Z,24
2017-11-21T08:50:06.556Z,28
2017-11-21T09:00:06.610Z,25
2017-11-21T09:10:06.515Z,26
2017-11-21T09:20:06.470Z,27
2017-11-21T09:30:06.712Z,27
2017-11-21T09:40:06.455Z,27
2017-11-21T09:50:06.424Z,29
2017-11-21T10:00:06.481Z,34
2017-11-21T10:10:06.540Z,26
2017-11-21T10:20:06.496Z,19
2017-11-21T10:30:06.522Z,15
2017-11-21T10:40:06.508Z,10
2017-11-21T10:50:06.946Z,8
2017-11-21T11:00:06.532Z,8
2017-11-21T11:10:06.677Z,7
2017-11-21T11:20:06.610Z,6
2017-11-21T11:30:06.533Z,5
2017-11-21T11:40:06.541Z,3
2017-11-21T11:50:06.534Z,2
2017-11-21T12:00:06.573Z,2
2017-11-21T12:10:06.631Z,2
2017-11-21T12:20:06.629Z,3
2017-11-21T12:30:06.637Z,2
2017-11-21T12:40:06.611Z,4
2017-11-21T12:50:06.749Z,4
2017-11-21T13:00:06.755Z,4
2017-11-21T13:10:06.659Z,3
2017-11-21T13:20:06.649Z,4
2017-11-21T13:30:06.783Z,6
2017-11-21T13:40:06.717Z,4
2017-11-21T13:50:06.691Z,5
2017-11-21T14:00:06.713Z,6
2017-11-21T14:10:06.789Z,8
2017-11-21T14:20:06.785Z,5
2017-11-21T14:30:06.813Z,7
2017-11-21T14:40:07.130Z,8
2017-11-21T14:50:06.868Z,8
2017-11-21T15:00:06.844Z,10
2017-11-21T15:10:06.858Z,11
2017-11-21T15:20:06.775Z,11
2017-11-21T15:30:07.029Z,15
2017-11-21T15:40:06.874Z,16
2017-11-21T15:50:07.941Z,19
2017-11-21T16:00:06.865Z,20
2017-11-21T16:10:06.912Z,27
2017-11-21T16:20:06.946Z,26
2017-11-21T16:30:07.331Z,30
2017-11-21T16:40:06.974Z,31
2017-11-21T16:50:06.926Z,30
2017-11-21T17:00:06.858Z,34
2017-11-21T17:10:06.918Z,34
2017-11-21T17:20:07.002Z,41
2017-11-21T17:30:07.037Z,40
2017-11-21T17:40:06.927Z,39
2017-11-21T17:50:06.965Z,44
2017-11-21T18:00:07.002Z,39
2017-11-21T18:10:06.973Z,52
2017-11-21T18:20:07.150Z,46
2017-11-21T18:30:07.062Z,43
2017-11-21T18:40:07.435Z,43
2017-11-21T18:50:07.261Z,41
2017-11-21T19:00:07.061Z,45
2017-11-21T19:10:07.293Z,40
2017-11-21T19:20:07.240Z,35
2017-11-21T19:30:07.233Z,31
2017-11-21T19:40:07.431Z,34
2017-11-21T19:50:07.149Z,25
2017-11-21T20:00:07.444Z,22
2017-11-21T20:10:08.123Z,28
2017-11-21T20:20:07.812Z,30
2017-11-21T20:30:07.177Z,24
2017-11-21T20:40:08.028Z,25
2017-11-21T20:50:07.271Z,24
2017-11-21T21:00:08.139Z,24
2017-11-21T21:10:07.822Z,24
2017-11-21T21:20:07.546Z,24
2017-11-21T21:30:07.672Z,25
2017-11-21T21:40:07.554Z,27
2017-11-21T21:50:07.356Z,24
2017-11-21T22:00:07.363Z,27
2017-11-21T22:10:07.312Z,24
2017-11-21T22:20:07.292Z,28
2017-11-21T22:30:08.440Z,23
2017-11-21T22:40:07.161Z,25
2017-11-21T22:50:07.206Z,23
2017-11-21T23:00:07.386Z,29
2017-11-21T23:10:07.298Z,23
2017-11-21T23:20:07.219Z,24
2017-11-21T23:30:07.376Z,18
2017-11-21T23:40:07.179Z,21
2017-11-21T23:50:07.391Z,21
